Terminal Aerodrome Forecast
Issued by NWS

Home | Current Version | Previous Version | Graphics & Text | Print | Product List | Glossary On
Versions: 1 2 3 4 5 6 7 8 9 10 11 12 13 14 15 16 17 18 19 20
000
FTUS43 KPAH 111120
TAFCGI
TAF
KCGI 111120Z 1112/1212 07004KT P6SM BKN050
     FM111400 04007KT P6SM FEW040 SCT250
     FM112300 06005KT P6SM OVC100=

USA.gov is the U.S. government's official web portal to all federal, state and local government web resources and services.